createdAt,value
2022-08-26T00:01:15.721Z,7.25
2022-08-26T00:03:42.408Z,7.65
2022-08-26T00:06:09.752Z,7.82
2022-08-26T00:08:39.580Z,7.22
2022-08-26T00:11:08.421Z,7.88
2022-08-26T00:13:36.949Z,6.93
2022-08-26T00:16:05.583Z,7.95
2022-08-26T00:18:38.787Z,7.38
2022-08-26T00:21:08.419Z,7.25
2022-08-26T00:23:35.497Z,8.35
2022-08-26T00:26:02.353Z,7.90
2022-08-26T00:28:29.046Z,8.52
2022-08-26T00:30:55.678Z,8.73
2022-08-26T00:33:22.973Z,8.75
2022-08-26T00:35:50.199Z,8.48
2022-08-26T00:38:18.437Z,8.85
2022-08-26T00:40:55.178Z,7.57
2022-08-26T00:43:22.588Z,7.38
2022-08-26T00:45:55.581Z,8.30
2022-08-26T00:48:25.025Z,7.65
2022-08-26T00:50:58.648Z,7.55
2022-08-26T00:53:28.167Z,7.55
2022-08-26T00:56:03.043Z,8.15
2022-08-26T00:58:32.293Z,8.93
2022-08-26T01:01:00.386Z,8.85
2022-08-26T01:03:27.971Z,8.27
2022-08-26T01:05:57.386Z,9.20
2022-08-26T01:08:24.590Z,9.02
2022-08-26T01:10:52.404Z,8.57
2022-08-26T01:13:22.799Z,8.00
2022-08-26T01:15:55.837Z,8.38
2022-08-26T01:18:23.126Z,8.55
2022-08-26T01:21:06.154Z,8.82
2022-08-26T01:23:40.528Z,8.90
2022-08-26T01:26:19.765Z,7.72
2022-08-26T01:28:50.641Z,9.50
2022-08-26T01:31:21.105Z,9.20
2022-08-26T01:34:12.739Z,8.63
2022-08-26T01:36:39.595Z,9.70
2022-08-26T01:39:07.354Z,11.18
2022-08-26T01:41:36.461Z,9.48
2022-08-26T01:44:05.887Z,8.90
2022-08-26T01:46:36.679Z,9.98
2022-08-26T01:49:06.474Z,9.00
2022-08-26T01:51:36.996Z,9.38
2022-08-26T01:54:05.284Z,10.55
2022-08-26T01:56:33.467Z,9.70
2022-08-26T01:59:05.995Z,9.38
2022-08-26T02:01:34.178Z,9.13
2022-08-26T02:04:07.087Z,8.75
2022-08-26T02:06:36.472Z,9.65
2022-08-26T02:09:04.631Z,10.43
2022-08-26T02:11:31.359Z,10.48
2022-08-26T02:14:02.758Z,10.52
2022-08-26T02:16:42.762Z,9.95
2022-08-26T02:19:17.158Z,10.18
2022-08-26T02:21:45.904Z,9.35
2022-08-26T02:24:27.564Z,10.05
2022-08-26T02:26:56.660Z,10.27
2022-08-26T02:29:29.771Z,11.98
2022-08-26T02:31:58.234Z,12.52
2022-08-26T02:34:31.738Z,11.90
2022-08-26T02:37:00.620Z,12.68
2022-08-26T02:39:29.537Z,11.75
2022-08-26T02:41:56.730Z,10.88
2022-08-26T02:44:23.315Z,10.75
2022-08-26T02:46:54.170Z,10.75
2022-08-26T02:49:21.796Z,9.73
2022-08-26T02:51:49.487Z,9.57
2022-08-26T02:54:17.234Z,11.38
2022-08-26T02:56:44.438Z,10.40
2022-08-26T02:59:12.680Z,10.30
2022-08-26T03:01:40.559Z,10.98
2022-08-26T03:04:10.243Z,11.07
2022-08-26T03:06:37.292Z,11.25
2022-08-26T03:09:05.535Z,11.07
2022-08-26T03:11:33.203Z,10.52
2022-08-26T03:14:00.578Z,10.05
2022-08-26T03:16:32.358Z,10.80
2022-08-26T03:19:00.316Z,11.45
2022-08-26T03:21:27.124Z,11.25
2022-08-26T03:23:54.156Z,10.68
2022-08-26T03:26:25.366Z,11.90
2022-08-26T03:29:11.382Z,11.90
2022-08-26T03:31:38.155Z,10.27
2022-08-26T03:34:05.282Z,10.52
2022-08-26T03:36:32.126Z,10.40
2022-08-26T03:39:02.040Z,11.52
2022-08-26T03:41:28.913Z,10.88
2022-08-26T03:44:00.979Z,10.73
2022-08-26T03:46:28.501Z,11.60
2022-08-26T03:48:55.334Z,11.35
2022-08-26T03:51:21.897Z,11.18
2022-08-26T03:53:50.977Z,11.88
2022-08-26T03:56:17.550Z,10.40
2022-08-26T03:58:44.619Z,12.15
2022-08-26T04:01:15.369Z,11.45
2022-08-26T04:04:00.340Z,11.52
2022-08-26T04:06:39.856Z,13.13
2022-08-26T04:09:09.265Z,12.20
2022-08-26T04:11:38.633Z,12.25
2022-08-26T04:14:14.182Z,11.27
2022-08-26T04:16:45.093Z,12.80
2022-08-26T04:19:13.373Z,12.80
2022-08-26T04:21:41.265Z,12.15
2022-08-26T04:24:12.034Z,13.10
2022-08-26T04:26:42.686Z,13.88
2022-08-26T04:29:14.284Z,13.85
2022-08-26T04:31:41.307Z,13.82
2022-08-26T04:34:08.280Z,13.20
2022-08-26T04:36:37.778Z,13.20
2022-08-26T04:39:05.898Z,13.60
2022-08-26T04:41:33.161Z,13.95
2022-08-26T04:43:59.814Z,14.63
2022-08-26T04:46:26.545Z,14.75
2022-08-26T04:48:55.286Z,14.00
2022-08-26T04:51:27.379Z,13.75
2022-08-26T04:53:58.761Z,13.43
2022-08-26T04:56:27.872Z,14.52
2022-08-26T04:58:55.235Z,14.80
2022-08-26T05:01:22.448Z,14.75
2022-08-26T05:03:51.072Z,14.82
2022-08-26T05:06:19.377Z,13.98
2022-08-26T05:08:46.313Z,14.45
2022-08-26T05:11:13.697Z,13.73
2022-08-26T05:13:40.422Z,12.25
2022-08-26T05:16:09.690Z,12.90
2022-08-26T05:18:39.537Z,12.25
2022-08-26T05:21:07.186Z,12.68
2022-08-26T05:23:35.637Z,12.35
2022-08-26T05:26:02.261Z,12.20
2022-08-26T05:28:31.811Z,13.07
2022-08-26T05:30:58.742Z,12.15
2022-08-26T05:33:25.461Z,13.32
2022-08-26T05:35:52.104Z,13.00
2022-08-26T05:38:21.395Z,13.70
2022-08-26T05:40:52.871Z,12.63
2022-08-26T05:43:20.514Z,12.45
2022-08-26T05:45:49.535Z,12.30
2022-08-26T05:48:18.621Z,11.68
2022-08-26T05:50:51.290Z,12.40
2022-08-26T05:53:20.223Z,12.27
2022-08-26T05:55:51.791Z,11.65
2022-08-26T05:58:20.944Z,10.95
2022-08-26T06:01:05.748Z,11.13
2022-08-26T06:03:34.211Z,11.98
2022-08-26T06:06:09.791Z,11.10
2022-08-26T06:08:38.032Z,11.50
2022-08-26T06:11:08.047Z,11.20
2022-08-26T06:13:45.482Z,11.02
2022-08-26T06:16:14.446Z,11.30
2022-08-26T06:18:43.055Z,10.68
2022-08-26T06:21:33.459Z,10.85
2022-08-26T06:24:26.954Z,11.13
2022-08-26T06:26:56.175Z,10.68
2022-08-26T06:29:25.376Z,11.68
2022-08-26T06:31:53.467Z,9.90
2022-08-26T06:34:20.130Z,10.77
2022-08-26T06:36:47.778Z,10.13
2022-08-26T06:39:16.774Z,9.68
2022-08-26T06:41:45.033Z,9.10
2022-08-26T06:44:18.360Z,9.43
2022-08-26T06:46:46.232Z,8.57
2022-08-26T06:49:17.403Z,8.65
2022-08-26T06:51:44.460Z,8.77
2022-08-26T06:54:11.467Z,9.55
2022-08-26T06:56:40.911Z,9.23
2022-08-26T06:59:08.240Z,9.13
2022-08-26T07:01:38.621Z,8.25
2022-08-26T07:04:10.540Z,9.43
2022-08-26T07:06:41.652Z,9.70
2022-08-26T07:09:10.319Z,8.55
2022-08-26T07:11:38.496Z,8.27
2022-08-26T07:14:06.038Z,9.35
2022-08-26T07:16:33.487Z,9.30
2022-08-26T07:19:01.120Z,8.40
2022-08-26T07:21:30.058Z,9.23
2022-08-26T07:24:01.401Z,8.93
2022-08-26T07:26:30.014Z,8.43
2022-08-26T07:28:57.783Z,8.73
2022-08-26T07:31:28.176Z,8.55
2022-08-26T07:33:56.785Z,8.43
2022-08-26T07:36:24.449Z,8.57
2022-08-26T07:38:51.674Z,8.77
2022-08-26T07:41:20.908Z,8.00
2022-08-26T07:43:47.956Z,8.38
2022-08-26T07:46:18.559Z,7.95
2022-08-26T07:48:53.649Z,7.78
2022-08-26T07:51:21.272Z,7.95
2022-08-26T07:53:52.339Z,7.45
2022-08-26T07:56:20.800Z,8.20
2022-08-26T07:58:51.275Z,8.07
2022-08-26T08:01:18.921Z,7.97
2022-08-26T08:03:45.498Z,7.18
2022-08-26T08:06:12.360Z,8.07
2022-08-26T08:08:41.320Z,6.95
2022-08-26T08:11:08.278Z,7.25
2022-08-26T08:13:37.399Z,7.53
2022-08-26T08:16:04.963Z,7.35
2022-08-26T08:18:31.640Z,6.88
2022-08-26T08:21:21.142Z,7.18
2022-08-26T08:23:47.490Z,7.00
2022-08-26T08:26:14.236Z,6.03
2022-08-26T08:28:40.990Z,6.18
2022-08-26T08:31:52.538Z,6.40
2022-08-26T08:34:15.395Z,5.97
2022-08-26T08:36:41.973Z,5.65
2022-08-26T08:39:09.287Z,5.95
2022-08-26T08:42:09.408Z,5.70
2022-08-26T08:44:38.526Z,6.20
2022-08-26T08:47:16.117Z,5.68
2022-08-26T08:49:43.384Z,5.10
2022-08-26T08:52:18.959Z,5.75
2022-08-26T08:54:46.484Z,5.72
2022-08-26T08:57:32.804Z,5.72
2022-08-26T09:00:11.172Z,5.47
2022-08-26T09:02:50.464Z,5.85
2022-08-26T09:05:31.972Z,5.53
2022-08-26T09:08:11.120Z,5.28
2022-08-26T09:10:44.665Z,5.50
2022-08-26T09:13:17.060Z,6.18
2022-08-26T09:16:01.557Z,5.93
2022-08-26T09:18:55.689Z,5.43
2022-08-26T09:21:23.869Z,5.88
2022-08-26T09:23:55.377Z,5.05
2022-08-26T09:26:31.090Z,6.10
2022-08-26T09:29:02.374Z,6.38
2022-08-26T09:31:32.419Z,5.40
2022-08-26T09:34:17.846Z,6.00
2022-08-26T09:36:51.347Z,5.75
2022-08-26T09:39:23.920Z,6.00
2022-08-26T09:42:25.394Z,6.75
2022-08-26T09:44:59.406Z,5.95
2022-08-26T09:47:30.302Z,6.28
2022-08-26T09:50:28.711Z,6.10
2022-08-26T09:53:12.834Z,5.65
2022-08-26T09:55:42.524Z,6.15
2022-08-26T09:58:14.328Z,6.15
2022-08-26T10:00:43.594Z,5.75
2022-08-26T10:03:12.292Z,6.72
2022-08-26T10:05:57.077Z,5.90
2022-08-26T10:08:31.498Z,6.85
2022-08-26T10:11:01.810Z,6.05
2022-08-26T10:13:31.323Z,6.20
2022-08-26T10:16:17.848Z,7.10
2022-08-26T10:19:22.106Z,6.25
2022-08-26T10:22:25.916Z,6.70
2022-08-26T10:24:59.010Z,6.07
2022-08-26T10:27:37.296Z,6.70
2022-08-26T10:30:13.150Z,6.10
2022-08-26T10:32:46.700Z,6.20
2022-08-26T10:35:15.722Z,6.32
2022-08-26T10:37:54.124Z,5.95
2022-08-26T10:40:26.001Z,6.57
2022-08-26T10:43:14.587Z,6.40
2022-08-26T10:45:49.359Z,6.90
2022-08-26T10:48:25.682Z,6.07
2022-08-26T10:51:04.043Z,5.03
2022-08-26T10:53:32.641Z,4.22
2022-08-26T10:56:18.562Z,4.65
2022-08-26T10:59:03.597Z,4.85
2022-08-26T11:01:50.851Z,4.78
2022-08-26T11:04:17.746Z,4.18
2022-08-26T11:06:46.080Z,4.15
2022-08-26T11:09:43.148Z,4.70
2022-08-26T11:12:10.326Z,4.40
2022-08-26T11:14:45.985Z,5.05
2022-08-26T11:17:44.877Z,4.43
2022-08-26T11:20:23.937Z,5.47
2022-08-26T11:22:53.055Z,5.75
2022-08-26T11:25:29.648Z,4.97
2022-08-26T11:27:59.930Z,5.35
2022-08-26T11:30:35.813Z,6.07
2022-08-26T11:33:02.501Z,6.43
2022-08-26T11:35:37.436Z,7.63
2022-08-26T11:38:20.559Z,5.75
2022-08-26T11:40:56.719Z,6.72
2022-08-26T11:43:25.999Z,6.70
2022-08-26T11:46:07.273Z,7.25
2022-08-26T11:48:41.065Z,6.35
2022-08-26T11:51:13.542Z,6.63
2022-08-26T11:53:44.898Z,6.82
2022-08-26T11:56:31.627Z,6.93
2022-08-26T11:59:00.883Z,7.20
2022-08-26T12:01:37.148Z,7.25
2022-08-26T12:04:07.015Z,7.18
2022-08-26T12:06:46.660Z,7.32
2022-08-26T12:09:34.329Z,7.03
2022-08-26T12:12:12.313Z,7.05
2022-08-26T12:14:39.663Z,7.15
2022-08-26T12:17:19.306Z,6.57
2022-08-26T12:19:49.087Z,7.63
2022-08-26T12:22:21.115Z,6.57
2022-08-26T12:24:51.075Z,6.75
2022-08-26T12:27:20.516Z,7.32
2022-08-26T12:30:15.864Z,6.50
2022-08-26T12:32:55.134Z,7.30
2022-08-26T12:35:24.987Z,7.03
2022-08-26T12:37:52.846Z,7.05
2022-08-26T12:40:28.890Z,7.65
2022-08-26T12:42:56.465Z,7.10
2022-08-26T12:45:28.849Z,6.85
2022-08-26T12:47:58.470Z,6.53
2022-08-26T12:50:35.603Z,6.55
2022-08-26T12:53:10.904Z,5.68
2022-08-26T12:55:55.161Z,5.90
2022-08-26T12:58:33.008Z,6.18
2022-08-26T13:01:08.946Z,5.38
2022-08-26T13:03:37.415Z,5.10
2022-08-26T13:06:16.004Z,5.45
2022-08-26T13:08:48.014Z,4.80
2022-08-26T13:11:21.183Z,4.53
2022-08-26T13:13:53.633Z,4.10
2022-08-26T13:16:21.851Z,4.75
2022-08-26T13:18:51.501Z,4.38
2022-08-26T13:21:21.448Z,4.90
2022-08-26T13:23:48.861Z,4.20
2022-08-26T13:26:15.556Z,5.05
2022-08-26T13:28:42.686Z,5.20
2022-08-26T13:31:13.644Z,5.78
2022-08-26T13:33:40.884Z,5.13
2022-08-26T13:36:08.161Z,5.43
2022-08-26T13:38:34.774Z,6.95
2022-08-26T13:41:04.058Z,6.75
2022-08-26T13:43:31.178Z,5.75
2022-08-26T13:45:57.856Z,5.85
2022-08-26T13:48:24.447Z,6.47
2022-08-26T13:50:52.113Z,6.75
2022-08-26T13:53:18.772Z,5.93
2022-08-26T13:55:45.410Z,6.07
2022-08-26T13:58:13.541Z,6.15
2022-08-26T14:00:41.293Z,5.88
2022-08-26T14:03:13.116Z,6.07
2022-08-26T14:05:40.334Z,5.57
2022-08-26T14:08:07.080Z,6.20
2022-08-26T14:10:34.056Z,5.82
2022-08-26T14:13:02.483Z,6.63
2022-08-26T14:15:35.828Z,5.80
2022-08-26T14:18:04.368Z,6.13
2022-08-26T14:20:33.356Z,6.20
2022-08-26T14:23:15.469Z,5.53
2022-08-26T14:25:42.566Z,5.50
2022-08-26T14:28:09.399Z,5.65
2022-08-26T14:30:37.329Z,6.28
2022-08-26T14:33:05.160Z,5.70
2022-08-26T14:35:31.826Z,6.07
2022-08-26T14:37:58.465Z,6.00
2022-08-26T14:40:29.064Z,6.15
2022-08-26T14:42:55.892Z,6.30
2022-08-26T14:45:26.841Z,6.00
2022-08-26T14:47:56.513Z,6.07
2022-08-26T14:50:26.138Z,6.45
2022-08-26T14:53:11.451Z,5.82
2022-08-26T14:55:40.892Z,7.13
2022-08-26T14:58:09.374Z,6.55
2022-08-26T15:00:36.549Z,6.35
2022-08-26T15:03:03.822Z,6.22
2022-08-26T15:05:30.584Z,6.63
2022-08-26T15:07:57.205Z,5.75
2022-08-26T15:10:23.948Z,5.90
2022-08-26T15:12:52.923Z,6.57
2022-08-26T15:15:19.618Z,6.75
2022-08-26T15:17:46.235Z,6.20
2022-08-26T15:20:15.964Z,6.50
2022-08-26T15:22:43.155Z,7.00
2022-08-26T15:25:10.776Z,6.95
2022-08-26T15:27:37.585Z,6.38
2022-08-26T15:30:09.537Z,6.78
2022-08-26T15:32:36.354Z,6.45
2022-08-26T15:35:08.158Z,7.20
2022-08-26T15:37:35.865Z,7.13
2022-08-26T15:40:02.681Z,7.20
2022-08-26T15:42:29.335Z,7.45
2022-08-26T15:44:56.074Z,7.13
2022-08-26T15:47:23.738Z,6.15
2022-08-26T15:49:50.663Z,6.75
2022-08-26T15:52:17.441Z,7.28
2022-08-26T15:54:44.079Z,7.18
2022-08-26T15:57:12.336Z,7.47
2022-08-26T15:59:40.322Z,7.72
2022-08-26T16:02:07.361Z,7.38
2022-08-26T16:04:34.118Z,6.40
2022-08-26T16:07:01.001Z,7.07
2022-08-26T16:09:28.770Z,7.22
2022-08-26T16:11:56.168Z,6.43
2022-08-26T16:14:23.578Z,6.18
2022-08-26T16:16:50.936Z,5.13
2022-08-26T16:19:17.833Z,5.28
2022-08-26T16:21:44.665Z,5.13
2022-08-26T16:24:11.980Z,5.88
2022-08-26T16:26:39.933Z,5.30
2022-08-26T16:29:09.211Z,6.20
2022-08-26T16:31:37.180Z,5.93
2022-08-26T16:34:04.670Z,6.45
2022-08-26T16:36:31.432Z,6.47
2022-08-26T16:38:58.207Z,5.18
2022-08-26T16:41:27.165Z,5.82
2022-08-26T16:43:54.335Z,5.82
2022-08-26T16:46:23.595Z,5.88
2022-08-26T16:48:50.322Z,6.20
2022-08-26T16:51:18.951Z,5.75
2022-08-26T16:53:46.087Z,6.00
2022-08-26T16:56:17.201Z,5.35
2022-08-26T16:58:44.144Z,4.95
2022-08-26T17:01:11.000Z,5.57
2022-08-26T17:03:37.667Z,5.38
2022-08-26T17:06:04.416Z,4.97
2022-08-26T17:08:30.935Z,4.40
2022-08-26T17:10:59.283Z,3.60
2022-08-26T17:13:34.689Z,2.70
2022-08-26T17:16:02.529Z,3.03
2022-08-26T17:18:31.238Z,2.58
2022-08-26T17:21:02.017Z,2.33
2022-08-26T17:23:28.683Z,1.85
2022-08-26T17:25:55.265Z,1.92
2022-08-26T17:28:21.919Z,1.60
2022-08-26T17:30:48.637Z,1.02
2022-08-26T17:33:15.273Z,1.17
2022-08-26T17:35:45.307Z,1.30
2022-08-26T17:38:11.875Z,1.20
2022-08-26T17:40:39.204Z,1.60
2022-08-26T17:43:10.329Z,1.40
2022-08-26T17:45:40.270Z,2.28
2022-08-26T17:48:07.107Z,2.90
2022-08-26T17:50:33.743Z,3.15
2022-08-26T17:53:00.424Z,3.22
2022-08-26T17:55:27.105Z,3.25
2022-08-26T17:57:54.081Z,3.60
2022-08-26T18:00:23.355Z,4.78
2022-08-26T18:02:49.999Z,5.30
2022-08-26T18:05:17.536Z,6.03
2022-08-26T18:07:44.867Z,7.78
2022-08-26T18:10:13.648Z,8.18
2022-08-26T18:12:40.981Z,8.55
2022-08-26T18:15:08.896Z,8.75
2022-08-26T18:17:35.531Z,8.80
2022-08-26T18:20:02.266Z,9.02
2022-08-26T18:22:28.983Z,10.30
2022-08-26T18:24:59.245Z,9.02
2022-08-26T18:27:26.707Z,8.43
2022-08-26T18:29:54.665Z,8.23
2022-08-26T18:32:21.266Z,7.68
2022-08-26T18:34:48.366Z,8.00
2022-08-26T18:37:15.100Z,8.95
2022-08-26T18:39:41.743Z,10.43
2022-08-26T18:42:08.909Z,8.75
2022-08-26T18:44:35.620Z,9.50
2022-08-26T18:47:02.345Z,9.07
2022-08-26T18:49:29.343Z,9.50
2022-08-26T18:51:56.007Z,10.68
2022-08-26T18:54:22.655Z,10.45
2022-08-26T18:56:49.439Z,9.40
2022-08-26T18:59:16.067Z,9.98
2022-08-26T19:01:43.226Z,10.25
2022-08-26T19:04:14.774Z,10.63
2022-08-26T19:09:11.799Z,10.07
2022-08-26T19:11:42.824Z,10.30
2022-08-26T19:14:13.507Z,11.02
2022-08-26T19:16:45.600Z,11.00
2022-08-26T19:19:12.737Z,11.85
2022-08-26T19:21:39.890Z,11.43
2022-08-26T19:24:15.328Z,11.63
2022-08-26T19:26:46.806Z,11.55
2022-08-26T19:29:13.776Z,12.20
2022-08-26T19:31:42.164Z,12.10
2022-08-26T19:34:11.005Z,10.68
2022-08-26T19:36:37.967Z,11.32
2022-08-26T19:39:08.253Z,11.63
2022-08-26T19:41:37.924Z,11.27
2022-08-26T19:44:07.988Z,11.93
2022-08-26T19:46:34.964Z,12.00
2022-08-26T19:49:01.624Z,12.02
2022-08-26T19:51:30.437Z,11.75
2022-08-26T19:53:58.875Z,12.07
2022-08-26T19:56:26.627Z,12.18
2022-08-26T19:58:54.375Z,12.55
2022-08-26T20:01:21.427Z,11.38
2022-08-26T20:03:48.288Z,11.57
2022-08-26T20:06:16.503Z,11.25
2022-08-26T20:08:43.886Z,13.40
2022-08-26T20:11:14.528Z,14.75
2022-08-26T20:13:41.944Z,14.43
2022-08-26T20:16:10.362Z,14.40
2022-08-26T20:18:55.594Z,15.25
2022-08-26T20:21:28.230Z,15.32
2022-08-26T20:24:04.350Z,15.30
2022-08-26T20:26:33.174Z,16.02
2022-08-26T20:29:00.095Z,15.23
2022-08-26T20:31:27.034Z,16.02
2022-08-26T20:33:53.948Z,14.27
2022-08-26T20:36:22.243Z,15.07
2022-08-26T20:38:49.492Z,13.65
2022-08-26T20:41:16.970Z,12.57
2022-08-26T20:43:43.904Z,12.13
2022-08-26T20:46:16.907Z,12.63
2022-08-26T20:48:45.631Z,13.27
2022-08-26T20:51:12.395Z,13.70
2022-08-26T20:53:39.203Z,12.82
2022-08-26T20:56:08.557Z,13.93
2022-08-26T20:58:35.771Z,14.57
2022-08-26T21:01:07.340Z,12.50
2022-08-26T21:03:35.576Z,13.30
2022-08-26T21:06:03.111Z,14.00
2022-08-26T21:08:29.794Z,12.32
2022-08-26T21:10:59.699Z,13.07
2022-08-26T21:13:26.293Z,13.73
2022-08-26T21:15:56.127Z,14.55
2022-08-26T21:18:22.736Z,14.30
2022-08-26T21:20:49.433Z,12.73
2022-08-26T21:23:16.016Z,13.48
2022-08-26T21:25:42.654Z,12.98
2022-08-26T21:28:09.793Z,13.27
2022-08-26T21:30:40.557Z,11.93
2022-08-26T21:33:07.706Z,12.77
2022-08-26T21:35:34.377Z,12.63
2022-08-26T21:38:01.131Z,12.48
2022-08-26T21:40:27.867Z,12.30
2022-08-26T21:42:54.611Z,13.43
2022-08-26T21:45:21.199Z,15.30
2022-08-26T21:47:47.790Z,14.70
2022-08-26T21:50:14.360Z,14.43
2022-08-26T21:52:40.951Z,15.10
2022-08-26T21:55:09.037Z,15.10
2022-08-26T21:57:36.402Z,15.90
2022-08-26T22:00:04.867Z,17.33
2022-08-26T22:02:32.680Z,16.48
2022-08-26T22:04:59.327Z,16.85
2022-08-26T22:07:25.898Z,18.15
2022-08-26T22:09:52.488Z,16.42
2022-08-26T22:12:19.086Z,15.65
2022-08-26T22:14:45.965Z,17.85
2022-08-26T22:17:12.616Z,16.55
2022-08-26T22:19:45.694Z,18.02
2022-08-26T22:22:13.802Z,18.20
2022-08-26T22:24:40.626Z,19.33
2022-08-26T22:27:07.215Z,19.95
2022-08-26T22:29:34.388Z,20.20
2022-08-26T22:32:01.612Z,19.98
2022-08-26T22:34:28.267Z,17.25
2022-08-26T22:36:55.255Z,19.10
2022-08-26T22:39:24.006Z,19.13
2022-08-26T22:41:51.973Z,18.45
2022-08-26T22:44:20.486Z,21.48
2022-08-26T22:49:21.372Z,22.90
2022-08-26T22:51:48.590Z,20.85
2022-08-26T22:54:15.986Z,18.60
2022-08-26T22:56:44.322Z,18.80
2022-08-26T22:59:11.617Z,19.27
2022-08-26T23:01:42.162Z,18.85
2022-08-26T23:04:09.432Z,21.73
2022-08-26T23:06:38.287Z,21.92
2022-08-26T23:09:06.376Z,20.98
2022-08-26T23:11:34.050Z,22.65
2022-08-26T23:14:06.117Z,22.95
2022-08-26T23:16:39.496Z,21.67
2022-08-26T23:19:06.415Z,21.48
2022-08-26T23:21:33.472Z,20.30
2022-08-26T23:24:01.019Z,21.30
2022-08-26T23:26:28.171Z,22.77
2022-08-26T23:28:55.111Z,22.77
2022-08-26T23:31:21.836Z,22.20
2022-08-26T23:34:07.127Z,21.67
2022-08-26T23:36:34.956Z,21.33
2022-08-26T23:39:03.157Z,22.08
2022-08-26T23:41:30.005Z,22.52
2022-08-26T23:43:58.706Z,21.27
2022-08-26T23:46:28.392Z,23.25
2022-08-26T23:48:55.147Z,26.67
2022-08-26T23:51:40.600Z,29.17
2022-08-26T23:54:07.394Z,32.72
2022-08-26T23:56:35.321Z,32.38
2022-08-26T23:59:02.216Z,34.60
